Kinston, Alabama
Current Conditions -  °F | °C
As of 12:58 PM on Monday 20 Oct 2014 (Local Time) from K0J4 Reporting Station
Clear Clear  
Wind Chill: 76°   Ceiling: Unl
Heat Index: 76°   Visibility: 10mi
Dew Point: 55°   Wind: 3mph
Humidity: 48%   Direction: NA
Pressure: 30.04"   Gusts: NA
Location:  31.22°N, 86.17°W
Report Text: K0J4 201758Z AUTO VRB03KT 10SM CLR 24/13 A3004 RMK AO2 RAE01 SLP171 P0000 60000 T02440128 10256 20083 58020 $
Loading
Personal Weather Stations






























Interactive Weather Map
Tropical Storm Tracking
New forecast layout! Learn more

10-Day Weather Forecast

Advertisements
Track Severe Weather on mobile